Terminal Aerodrome Forecast
Issued by NWS Charleston, WV

Current Version | Previous Version | Graphics & Text | Print | Product List | Glossary On
Versions: 1 2 3 4 5 6 7 8 9 10 11 12 13 14 15 16 17 18 19 20 21 22 23 24 25 26 27 28 29
922
FTUS41 KRLX 251159
TAFHTS
TAF
KHTS 251159Z 2512/2612 31004KT 3SM BR OVC003
     FM251300 31004KT 5SM BR OVC004
     FM251600 32005KT P6SM OVC010
     FM252100 31005KT P6SM OVC020
     FM260100 33004KT P6SM BKN045
     FM261000 04003KT P6SM BKN080=

USA.gov is the U.S. government's official web portal to all federal, state and local government web resources and services.